createdAt,value
2019-03-21T00:03:00.000Z,100584
2019-03-21T00:08:00.000Z,100587
2019-03-21T00:13:00.000Z,100587
2019-03-21T00:19:00.000Z,100591
2019-03-21T00:24:00.000Z,100593
2019-03-21T00:29:00.000Z,100595
2019-03-21T00:34:00.000Z,100597
2019-03-21T00:39:00.000Z,100590
2019-03-21T00:44:00.000Z,100590
2019-03-21T00:49:00.000Z,100595
2019-03-21T00:54:00.000Z,100611
2019-03-21T00:59:00.000Z,100601
2019-03-21T01:04:00.000Z,100593
2019-03-21T01:09:00.000Z,100593
2019-03-21T01:14:00.000Z,100590
2019-03-21T01:19:00.000Z,100597
2019-03-21T01:24:00.000Z,100587
2019-03-21T01:29:00.000Z,100581
2019-03-21T01:34:00.000Z,100576
2019-03-21T01:39:00.000Z,100577
2019-03-21T01:44:00.000Z,100577
2019-03-21T01:49:00.000Z,100566
2019-03-21T01:54:00.000Z,100559
2019-03-21T01:59:00.000Z,100561
2019-03-21T02:04:00.000Z,100572
2019-03-21T02:09:00.000Z,100574
2019-03-21T02:14:00.000Z,100565
2019-03-21T02:19:00.000Z,100570
2019-03-21T02:24:00.000Z,100569
2019-03-21T02:29:00.000Z,100560
2019-03-21T02:34:00.000Z,100557
2019-03-21T02:39:00.000Z,100549
2019-03-21T02:45:00.000Z,100541
2019-03-21T02:50:00.000Z,100532
2019-03-21T02:55:00.000Z,100544
2019-03-21T03:00:00.000Z,100533
2019-03-21T03:05:00.000Z,100540
2019-03-21T03:10:00.000Z,100538
2019-03-21T03:15:00.000Z,100541
2019-03-21T03:20:00.000Z,100530
2019-03-21T03:25:00.000Z,100542
2019-03-21T03:30:00.000Z,100542
2019-03-21T03:35:00.000Z,100549
2019-03-21T03:40:00.000Z,100549
2019-03-21T03:45:00.000Z,100537
2019-03-21T03:50:00.000Z,100550
2019-03-21T03:55:00.000Z,100535
2019-03-21T04:00:00.000Z,100531
2019-03-21T04:05:00.000Z,100527
2019-03-21T04:10:00.000Z,100516
2019-03-21T04:15:00.000Z,100535
2019-03-21T04:20:00.000Z,100531
2019-03-21T04:25:00.000Z,100533
2019-03-21T04:30:00.000Z,100537
2019-03-21T04:35:00.000Z,100544
2019-03-21T04:40:00.000Z,100533
2019-03-21T04:45:00.000Z,100543
2019-03-21T04:51:00.000Z,100538
2019-03-21T04:56:00.000Z,100543
2019-03-21T05:01:00.000Z,100553
2019-03-21T05:06:00.000Z,100557
2019-03-21T05:11:00.000Z,100563
2019-03-21T05:16:00.000Z,100572
2019-03-21T05:21:00.000Z,100577
2019-03-21T05:26:00.000Z,100596
2019-03-21T05:31:00.000Z,100589
2019-03-21T05:36:00.000Z,100601
2019-03-21T05:41:00.000Z,100597
2019-03-21T05:46:00.000Z,100619
2019-03-21T05:51:00.000Z,100609
2019-03-21T05:56:00.000Z,100605
2019-03-21T06:01:00.000Z,100601
2019-03-21T06:06:00.000Z,100616
2019-03-21T06:11:00.000Z,100627
2019-03-21T06:16:00.000Z,100626
2019-03-21T06:21:00.000Z,100638
2019-03-21T06:26:00.000Z,100637
2019-03-21T06:31:00.000Z,100627
2019-03-21T06:36:00.000Z,100636
2019-03-21T06:41:00.000Z,100640
2019-03-21T06:46:00.000Z,100646
2019-03-21T06:51:00.000Z,100649
2019-03-21T06:56:00.000Z,100663
2019-03-21T07:01:00.000Z,100667
2019-03-21T07:06:00.000Z,100659
2019-03-21T07:11:00.000Z,100670
2019-03-21T07:16:00.000Z,100674
2019-03-21T07:22:00.000Z,100669
2019-03-21T07:27:00.000Z,100667
2019-03-21T07:32:00.000Z,100668
2019-03-21T07:37:00.000Z,100675
2019-03-21T07:42:00.000Z,100675
2019-03-21T07:47:00.000Z,100671
2019-03-21T07:52:00.000Z,100670
2019-03-21T07:57:00.000Z,100672
2019-03-21T08:02:00.000Z,100679
2019-03-21T08:07:00.000Z,100680
2019-03-21T08:12:00.000Z,100685
2019-03-21T08:17:00.000Z,100680
2019-03-21T08:22:00.000Z,100670
2019-03-21T08:27:00.000Z,100671
2019-03-21T08:32:00.000Z,100681
2019-03-21T08:37:00.000Z,100678
2019-03-21T08:42:00.000Z,100679
2019-03-21T08:47:00.000Z,100683
2019-03-21T08:52:00.000Z,100678
2019-03-21T08:57:00.000Z,100680
2019-03-21T09:02:00.000Z,100690
2019-03-21T09:07:00.000Z,100675
2019-03-21T09:12:00.000Z,100677
2019-03-21T09:17:00.000Z,100678
2019-03-21T09:22:00.000Z,100672
2019-03-21T09:27:00.000Z,100677
2019-03-21T09:32:00.000Z,100675
2019-03-21T09:37:00.000Z,100673
2019-03-21T09:42:00.000Z,100674
2019-03-21T09:47:00.000Z,100673
2019-03-21T09:52:00.000Z,100666
2019-03-21T09:57:00.000Z,100667
2019-03-21T10:02:00.000Z,100671
2019-03-21T10:07:00.000Z,100662
2019-03-21T10:12:00.000Z,100663
2019-03-21T10:17:00.000Z,100667
2019-03-21T10:22:00.000Z,100658
2019-03-21T10:27:00.000Z,100653
2019-03-21T10:32:00.000Z,100659
2019-03-21T10:37:00.000Z,100658
2019-03-21T10:42:00.000Z,100648
2019-03-21T10:47:00.000Z,100642
2019-03-21T10:52:00.000Z,100642
2019-03-21T10:57:00.000Z,100642
2019-03-21T11:02:00.000Z,100642
2019-03-21T11:07:00.000Z,100629
2019-03-21T11:12:00.000Z,100632
2019-03-21T11:17:00.000Z,100622
2019-03-21T11:22:00.000Z,100612
2019-03-21T11:27:00.000Z,100607
2019-03-21T11:32:00.000Z,100597
2019-03-21T11:37:00.000Z,100585
2019-03-21T11:42:00.000Z,100581
2019-03-21T11:47:00.000Z,100578
2019-03-21T11:53:00.000Z,100565
2019-03-21T11:58:00.000Z,100543
2019-03-21T12:03:00.000Z,100536
2019-03-21T12:08:00.000Z,100540
2019-03-21T12:13:00.000Z,100531
2019-03-21T12:18:00.000Z,100535
2019-03-21T12:23:00.000Z,100528
2019-03-21T12:28:00.000Z,100516
2019-03-21T12:33:00.000Z,100516
2019-03-21T12:38:00.000Z,100506
2019-03-21T12:43:00.000Z,100492
2019-03-21T12:48:00.000Z,100500
2019-03-21T12:53:00.000Z,100484
2019-03-21T12:58:00.000Z,100490
2019-03-21T13:03:00.000Z,100477
2019-03-21T13:08:00.000Z,100469
2019-03-21T13:13:00.000Z,100470
2019-03-21T13:18:00.000Z,100457
2019-03-21T13:23:00.000Z,100456
2019-03-21T13:28:00.000Z,100443
2019-03-21T13:33:00.000Z,100437
2019-03-21T13:38:00.000Z,100434
2019-03-21T13:43:00.000Z,100434
2019-03-21T13:48:00.000Z,100429
2019-03-21T13:53:00.000Z,100417
2019-03-21T13:58:00.000Z,100421
2019-03-21T14:03:00.000Z,100415
2019-03-21T14:08:00.000Z,100405
2019-03-21T14:13:00.000Z,100392
2019-03-21T14:18:00.000Z,100400
2019-03-21T14:23:00.000Z,100395
2019-03-21T14:28:00.000Z,100391
2019-03-21T14:33:00.000Z,100380
2019-03-21T14:38:00.000Z,100383
2019-03-21T14:43:00.000Z,100375
2019-03-21T14:48:00.000Z,100373
2019-03-21T14:53:00.000Z,100362
2019-03-21T14:58:00.000Z,100368
2019-03-21T15:03:00.000Z,100375
2019-03-21T15:08:00.000Z,100371
2019-03-21T15:13:00.000Z,100375
2019-03-21T15:18:00.000Z,100376
2019-03-21T15:23:00.000Z,100372
2019-03-21T15:29:00.000Z,100370
2019-03-21T15:34:00.000Z,100367
2019-03-21T15:39:00.000Z,100371
2019-03-21T15:44:00.000Z,100363
2019-03-21T15:49:00.000Z,100362
2019-03-21T15:54:00.000Z,100359
2019-03-21T15:59:00.000Z,100359
2019-03-21T16:04:00.000Z,100351
2019-03-21T16:09:00.000Z,100352
2019-03-21T16:14:00.000Z,100358
2019-03-21T16:19:00.000Z,100352
2019-03-21T16:24:00.000Z,100362
2019-03-21T16:29:00.000Z,100359
2019-03-21T16:34:00.000Z,100357
2019-03-21T16:39:00.000Z,100358
2019-03-21T16:44:00.000Z,100346
2019-03-21T16:49:00.000Z,100350
2019-03-21T16:54:00.000Z,100349
2019-03-21T16:59:00.000Z,100345
2019-03-21T17:04:00.000Z,100349
2019-03-21T17:09:00.000Z,100357
2019-03-21T17:14:00.000Z,100350
2019-03-21T17:19:00.000Z,100355
2019-03-21T17:24:00.000Z,100348
2019-03-21T17:29:00.000Z,100359
2019-03-21T17:34:00.000Z,100361
2019-03-21T17:39:00.000Z,100364
2019-03-21T17:44:00.000Z,100372
2019-03-21T17:49:00.000Z,100372
2019-03-21T17:54:00.000Z,100372
2019-03-21T17:59:00.000Z,100367
2019-03-21T18:04:00.000Z,100369
2019-03-21T18:09:00.000Z,100367
2019-03-21T18:14:00.000Z,100373
2019-03-21T18:19:00.000Z,100367
2019-03-21T18:24:00.000Z,100369
2019-03-21T18:29:00.000Z,100370
2019-03-21T18:34:00.000Z,100365
2019-03-21T18:39:00.000Z,100355
2019-03-21T18:44:00.000Z,100368
2019-03-21T18:49:00.000Z,100366
2019-03-21T18:54:00.000Z,100380
2019-03-21T19:00:00.000Z,100377
2019-03-21T19:05:00.000Z,100377
2019-03-21T19:10:00.000Z,100373
2019-03-21T19:15:00.000Z,100373
2019-03-21T19:20:00.000Z,100380
2019-03-21T19:25:00.000Z,100382
2019-03-21T19:30:00.000Z,100382
2019-03-21T19:35:00.000Z,100373
2019-03-21T19:40:00.000Z,100382
2019-03-21T19:45:00.000Z,100373
2019-03-21T19:50:00.000Z,100377
2019-03-21T19:55:00.000Z,100376
2019-03-21T20:00:00.000Z,100368
2019-03-21T20:05:00.000Z,100383
2019-03-21T20:10:00.000Z,100371
2019-03-21T20:15:00.000Z,100366
2019-03-21T20:20:00.000Z,100367
2019-03-21T20:25:00.000Z,100361
2019-03-21T20:30:00.000Z,100370
2019-03-21T20:35:00.000Z,100366
2019-03-21T20:40:00.000Z,100372
2019-03-21T20:45:00.000Z,100378
2019-03-21T20:50:00.000Z,100380
2019-03-21T20:55:00.000Z,100375
2019-03-21T21:00:00.000Z,100375
2019-03-21T21:05:00.000Z,100373
2019-03-21T21:10:00.000Z,100364
2019-03-21T21:15:00.000Z,100365
2019-03-21T21:20:00.000Z,100375
2019-03-21T21:25:00.000Z,100364
2019-03-21T21:31:00.000Z,100367
2019-03-21T21:36:00.000Z,100373
2019-03-21T21:41:00.000Z,100360
2019-03-21T21:46:00.000Z,100370
2019-03-21T21:51:00.000Z,100361
2019-03-21T21:56:00.000Z,100358
2019-03-21T22:01:00.000Z,100360
2019-03-21T22:06:00.000Z,100349
2019-03-21T22:11:00.000Z,100344
2019-03-21T22:16:00.000Z,100351
2019-03-21T22:21:00.000Z,100352
2019-03-21T22:26:00.000Z,100355
2019-03-21T22:31:00.000Z,100350
2019-03-21T22:36:00.000Z,100348
2019-03-21T22:41:00.000Z,100346
2019-03-21T22:46:00.000Z,100345
2019-03-21T22:51:00.000Z,100345
2019-03-21T22:56:00.000Z,100348
2019-03-21T23:01:00.000Z,100340
2019-03-21T23:06:00.000Z,100336
2019-03-21T23:11:00.000Z,100337
2019-03-21T23:16:00.000Z,100336
2019-03-21T23:21:00.000Z,100331
2019-03-21T23:26:00.000Z,100342
2019-03-21T23:31:00.000Z,100336
2019-03-21T23:36:00.000Z,100334
2019-03-21T23:41:00.000Z,100332
2019-03-21T23:46:00.000Z,100332
2019-03-21T23:51:00.000Z,100346
2019-03-21T23:56:00.000Z,100334
